Nordic Stockholm — 2DKI2 — position and weather

sailwx.info

Track history (hours):
 
Tides and Currents Weather Stations Pressure Air Temp Water Temp Dewpoint Dewpoint Depression Visibility Wind Speed Wind Dir Waves Ship Positions

Nordic Stockholm

Last reported at 2016-Apr-28 16:06 UTC. Time now 2016-Apr-29 01:56 UTC.
Position N 31°28' E 031°46'.

Length 180 m; draft 10.6 m.

Type: Cargo ship. MMSI: 235079725.

Date/timePositionNaut miles runAvg speedWind from/ knotsBaromVisibWave heightAir tempDewpointWater temp
2016-Apr-28 16:06N 31°28' E 031°46'  
2016-Apr-25 23:09N 31°28' E 031°46'0 0.0
2016-Apr-24 11:33N 31°28' E 031°46'0 0.0
2016-Apr-24 10:33N 31°28' E 031°46'0 0.0
2016-Apr-24 09:27N 31°28' E 031°46'0 0.0
2016-Apr-24 07:21N 31°28' E 031°46'0 0.0
2016-Apr-23 16:09N 31°28' E 031°46'0 0.0
2016-Apr-23 07:21N 31°28' E 031°46'0 0.0
2016-Apr-22 19:30N 31°28' E 031°46'0 0.0
2016-Apr-22 18:33N 31°28' E 031°46'0 0.0
2016-Apr-22 11:30N 31°28' E 031°46'0 0.0
2016-Apr-22 10:24N 31°28' E 031°46'0 0.0
2016-Apr-22 08:33N 31°28' E 031°46'4 0.5
2016-Apr-22 01:16N 31°31' E 031°46'6 8.8
2016-Apr-22 00:33N 31°38' E 031°47'3 1.0
2016-Apr-21 21:26N 31°39' E 031°44'0 0.0
2016-Apr-21 20:32N 31°39' E 031°44'1 0.7
2016-Apr-21 19:26N 31°39' E 031°44'2 0.0
2016-Apr-19 15:32N 31°38' E 031°42'0 0.0
2016-Apr-19 14:20N 31°38' E 031°42'0 0.0
2016-Apr-19 13:32N 31°38' E 031°42'0 0.0
2016-Apr-19 06:32N 31°38' E 031°42'0 0.0
2016-Apr-19 04:26N 31°38' E 031°42'0 0.0
2016-Apr-18 19:32N 31°38' E 031°42'0 0.0
2016-Apr-18 18:23N 31°38' E 031°42'0 0.0
2016-Apr-18 17:20N 31°38' E 031°42'  
Track history (hours):
 
Tides and Currents Weather Stations Pressure Air Temp Water Temp Dewpoint Dewpoint Depression Visibility Wind Speed Wind Dir Waves Ship Positions

Nordic Stockholm

Last reported at 2016-Apr-28 16:06 UTC. Time now 2016-Apr-29 01:56 UTC.
Position N 31°28' E 031°46'.

Length 180 m; draft 10.6 m.

Type: Cargo ship. MMSI: 235079725.

Date/timePositionNaut miles runAvg speedWind from/ knotsBaromVisibWave heightAir tempDewpointWater temp
2016-Apr-28 16:06N 31°28' E 031°46'  
2016-Apr-25 23:09N 31°28' E 031°46'0 0.0
2016-Apr-24 11:33N 31°28' E 031°46'0 0.0
2016-Apr-24 10:33N 31°28' E 031°46'0 0.0
2016-Apr-24 09:27N 31°28' E 031°46'0 0.0
2016-Apr-24 07:21N 31°28' E 031°46'0 0.0
2016-Apr-23 16:09N 31°28' E 031°46'0 0.0
2016-Apr-23 07:21N 31°28' E 031°46'0 0.0
2016-Apr-22 19:30N 31°28' E 031°46'0 0.0
2016-Apr-22 18:33N 31°28' E 031°46'0 0.0
2016-Apr-22 11:30N 31°28' E 031°46'0 0.0
2016-Apr-22 10:24N 31°28' E 031°46'0 0.0
2016-Apr-22 08:33N 31°28' E 031°46'4 0.5
2016-Apr-22 01:16N 31°31' E 031°46'6 8.8
2016-Apr-22 00:33N 31°38' E 031°47'3 1.0
2016-Apr-21 21:26N 31°39' E 031°44'0 0.0
2016-Apr-21 20:32N 31°39' E 031°44'1 0.7
2016-Apr-21 19:26N 31°39' E 031°44'2 0.0
2016-Apr-19 15:32N 31°38' E 031°42'0 0.0
2016-Apr-19 14:20N 31°38' E 031°42'0 0.0
2016-Apr-19 13:32N 31°38' E 031°42'0 0.0
2016-Apr-19 06:32N 31°38' E 031°42'0 0.0
2016-Apr-19 04:26N 31°38' E 031°42'0 0.0
2016-Apr-18 19:32N 31°38' E 031°42'0 0.0
2016-Apr-18 18:23N 31°38' E 031°42'0 0.0
2016-Apr-18 17:20N 31°38' E 031°42'  

Dump ship's entire track history